East Pitcairn, New York
Current Conditions -  °F | °C
As of 3:30 AM on Sunday 26 Oct 2014 (Local Time) from KGTB Reporting Station
Overcast Overcast  
Wind Chill:   Ceiling: 4200
Heat Index:   Visibility: 10mi
Dew Point:   Wind: 7mph
Humidity: 71%   Direction: 270°W
Pressure: 29.5"   Gusts: NA
Location:  44.1447°N, 75.2952°W
Report Text: KGTB 260730Z AUTO 27006KT 10SM OVC042 09/04 A2950 RMK AO2
Loading
Personal Weather Stations






























Interactive Weather Map
Tropical Storm Tracking
New forecast layout! Learn more

10-Day Weather Forecast

Advertisements
Track Severe Weather on mobile